sensor_id;sensor_type;location;lat;lon;timestamp;pressure;altitude;pressure_sealevel;temperature;humidity
3960;BME280;1994;48.640;8.894;2023-09-30T00:01:22;96998.78;;;17.30;76.47
3960;BME280;1994;48.640;8.894;2023-09-30T00:03:48;97004.00;;;17.30;76.71
3960;BME280;1994;48.640;8.894;2023-09-30T00:06:14;97003.97;;;17.25;76.55
3960;BME280;1994;48.640;8.894;2023-09-30T00:08:39;96999.28;;;17.27;76.21
3960;BME280;1994;48.640;8.894;2023-09-30T00:11:07;96991.44;;;17.32;76.10
3960;BME280;1994;48.640;8.894;2023-09-30T00:13:33;96992.50;;;17.36;75.46
3960;BME280;1994;48.640;8.894;2023-09-30T00:15:59;96990.44;;;17.38;75.25
3960;BME280;1994;48.640;8.894;2023-09-30T00:18:24;96987.28;;;17.36;75.55
3960;BME280;1994;48.640;8.894;2023-09-30T00:20:50;96988.84;;;17.37;75.43
3960;BME280;1994;48.640;8.894;2023-09-30T00:23:16;96993.13;;;17.43;75.55
3960;BME280;1994;48.640;8.894;2023-09-30T00:25:42;96983.59;;;17.37;76.38
3960;BME280;1994;48.640;8.894;2023-09-30T00:28:08;96979.34;;;17.21;77.27
3960;BME280;1994;48.640;8.894;2023-09-30T00:30:34;96978.56;;;17.20;77.21
3960;BME280;1994;48.640;8.894;2023-09-30T00:32:59;96985.91;;;17.28;76.70
3960;BME280;1994;48.640;8.894;2023-09-30T00:35:25;96988.56;;;17.33;76.68
3960;BME280;1994;48.640;8.894;2023-09-30T00:37:51;96988.38;;;17.40;76.36
3960;BME280;1994;48.640;8.894;2023-09-30T00:40:17;96979.47;;;17.41;76.07
3960;BME280;1994;48.640;8.894;2023-09-30T00:42:43;96989.38;;;17.34;76.79
3960;BME280;1994;48.640;8.894;2023-09-30T00:45:09;96986.66;;;17.19;76.97
3960;BME280;1994;48.640;8.894;2023-09-30T00:47:36;96992.16;;;17.17;76.91
3960;BME280;1994;48.640;8.894;2023-09-30T00:50:04;96988.69;;;17.07;77.15
3960;BME280;1994;48.640;8.894;2023-09-30T00:52:33;96985.03;;;17.08;76.91
3960;BME280;1994;48.640;8.894;2023-09-30T00:55:01;96987.69;;;17.13;77.07
3960;BME280;1994;48.640;8.894;2023-09-30T00:57:28;96986.59;;;17.09;77.47
3960;BME280;1994;48.640;8.894;2023-09-30T00:59:55;96987.13;;;17.06;77.34
3960;BME280;1994;48.640;8.894;2023-09-30T01:02:22;96987.06;;;16.96;78.18
3960;BME280;1994;48.640;8.894;2023-09-30T01:04:49;96994.34;;;16.89;78.25
3960;BME280;1994;48.640;8.894;2023-09-30T01:07:15;96998.25;;;16.86;78.35
3960;BME280;1994;48.640;8.894;2023-09-30T01:09:41;97000.91;;;16.91;77.96
3960;BME280;1994;48.640;8.894;2023-09-30T01:12:07;96993.78;;;16.87;78.02
3960;BME280;1994;48.640;8.894;2023-09-30T01:14:35;96995.34;;;16.88;78.17
3960;BME280;1994;48.640;8.894;2023-09-30T01:17:02;96992.75;;;16.88;78.18
3960;BME280;1994;48.640;8.894;2023-09-30T01:19:28;97003.69;;;16.80;78.73
3960;BME280;1994;48.640;8.894;2023-09-30T01:21:57;96997.94;;;16.83;78.30
3960;BME280;1994;48.640;8.894;2023-09-30T01:24:28;96996.97;;;16.89;78.16
3960;BME280;1994;48.640;8.894;2023-09-30T01:26:58;97002.06;;;16.74;79.07
3960;BME280;1994;48.640;8.894;2023-09-30T01:29:24;97006.84;;;16.82;78.24
3960;BME280;1994;48.640;8.894;2023-09-30T01:31:51;97005.53;;;16.84;78.34
3960;BME280;1994;48.640;8.894;2023-09-30T01:34:17;97002.13;;;16.79;78.46
3960;BME280;1994;48.640;8.894;2023-09-30T01:36:44;97009.41;;;16.77;79.10
3960;BME280;1994;48.640;8.894;2023-09-30T01:39:10;97003.88;;;16.73;78.70
3960;BME280;1994;48.640;8.894;2023-09-30T01:41:40;97006.47;;;16.68;79.05
3960;BME280;1994;48.640;8.894;2023-09-30T01:44:07;97004.59;;;16.64;79.53
3960;BME280;1994;48.640;8.894;2023-09-30T01:46:35;96997.81;;;16.63;79.20
3960;BME280;1994;48.640;8.894;2023-09-30T01:49:02;97001.47;;;16.62;79.18
3960;BME280;1994;48.640;8.894;2023-09-30T01:51:29;96998.84;;;16.62;78.86
3960;BME280;1994;48.640;8.894;2023-09-30T01:53:55;96993.56;;;16.57;79.55
3960;BME280;1994;48.640;8.894;2023-09-30T01:56:21;97002.38;;;16.46;80.30
3960;BME280;1994;48.640;8.894;2023-09-30T01:58:47;96992.94;;;16.45;80.29
3960;BME280;1994;48.640;8.894;2023-09-30T02:01:13;96990.47;;;16.33;80.73
3960;BME280;1994;48.640;8.894;2023-09-30T02:03:39;96988.59;;;16.29;80.63
3960;BME280;1994;48.640;8.894;2023-09-30T02:06:05;96990.16;;;16.30;80.41
3960;BME280;1994;48.640;8.894;2023-09-30T02:08:30;96995.94;;;16.32;80.03
3960;BME280;1994;48.640;8.894;2023-09-30T02:10:56;96990.59;;;16.22;80.19
3960;BME280;1994;48.640;8.894;2023-09-30T02:13:22;97008.91;;;15.74;82.64
3960;BME280;1994;48.640;8.894;2023-09-30T02:15:48;97015.22;;;15.56;84.29
3960;BME280;1994;48.640;8.894;2023-09-30T02:18:14;97014.75;;;15.81;83.01
3960;BME280;1994;48.640;8.894;2023-09-30T02:20:40;97011.09;;;15.82;83.49
3960;BME280;1994;48.640;8.894;2023-09-30T02:23:10;97016.31;;;15.82;83.32
3960;BME280;1994;48.640;8.894;2023-09-30T02:25:39;97015.28;;;15.83;83.15
3960;BME280;1994;48.640;8.894;2023-09-30T02:28:06;97024.22;;;15.87;82.42
3960;BME280;1994;48.640;8.894;2023-09-30T02:30:32;97022.75;;;15.96;82.97
3960;BME280;1994;48.640;8.894;2023-09-30T02:32:58;97015.94;;;15.95;83.14
3960;BME280;1994;48.640;8.894;2023-09-30T02:35:23;97009.72;;;16.01;82.70
3960;BME280;1994;48.640;8.894;2023-09-30T02:37:51;97024.44;;;16.07;82.55
3960;BME280;1994;48.640;8.894;2023-09-30T02:40:17;97020.09;;;16.17;82.50
3960;BME280;1994;48.640;8.894;2023-09-30T02:42:44;97012.31;;;16.22;82.31
3960;BME280;1994;48.640;8.894;2023-09-30T02:45:11;97032.38;;;16.17;82.11
3960;BME280;1994;48.640;8.894;2023-09-30T02:47:38;97024.63;;;16.00;82.75
3960;BME280;1994;48.640;8.894;2023-09-30T02:50:06;97026.03;;;16.08;82.57
3960;BME280;1994;48.640;8.894;2023-09-30T02:52:41;97033.41;;;16.16;82.05
3960;BME280;1994;48.640;8.894;2023-09-30T02:55:11;97027.34;;;16.10;82.02
3960;BME280;1994;48.640;8.894;2023-09-30T02:57:38;97028.19;;;16.16;81.72
3960;BME280;1994;48.640;8.894;2023-09-30T03:00:06;97022.19;;;16.15;81.78
3960;BME280;1994;48.640;8.894;2023-09-30T03:02:53;97035.63;;;16.02;81.93
3960;BME280;1994;48.640;8.894;2023-09-30T03:05:19;97031.72;;;16.05;82.35
3960;BME280;1994;48.640;8.894;2023-09-30T03:07:46;97025.03;;;16.14;81.34
3960;BME280;1994;48.640;8.894;2023-09-30T03:10:12;97037.34;;;16.18;81.42
3960;BME280;1994;48.640;8.894;2023-09-30T03:12:39;97037.25;;;16.08;81.47
3960;BME280;1994;48.640;8.894;2023-09-30T03:15:06;97036.94;;;16.05;81.83
3960;BME280;1994;48.640;8.894;2023-09-30T03:17:32;97029.69;;;16.07;82.89
3960;BME280;1994;48.640;8.894;2023-09-30T03:19:58;97038.53;;;16.06;83.17
3960;BME280;1994;48.640;8.894;2023-09-30T03:22:27;97027.31;;;16.05;82.95
3960;BME280;1994;48.640;8.894;2023-09-30T03:24:54;97024.97;;;16.09;83.19
3960;BME280;1994;48.640;8.894;2023-09-30T03:27:20;97035.38;;;16.04;83.38
3960;BME280;1994;48.640;8.894;2023-09-30T03:29:46;97048.09;;;15.95;83.66
3960;BME280;1994;48.640;8.894;2023-09-30T03:32:12;97046.53;;;15.94;83.57
3960;BME280;1994;48.640;8.894;2023-09-30T03:34:38;97042.56;;;15.92;83.36
3960;BME280;1994;48.640;8.894;2023-09-30T03:37:05;97039.84;;;15.82;83.38
3960;BME280;1994;48.640;8.894;2023-09-30T03:39:34;97026.47;;;15.78;83.77
3960;BME280;1994;48.640;8.894;2023-09-30T03:42:00;97023.28;;;15.76;84.34
3960;BME280;1994;48.640;8.894;2023-09-30T03:44:26;97021.47;;;15.77;84.29
3960;BME280;1994;48.640;8.894;2023-09-30T03:46:52;97016.72;;;15.74;84.62
3960;BME280;1994;48.640;8.894;2023-09-30T03:49:19;97000.06;;;15.75;84.62
3960;BME280;1994;48.640;8.894;2023-09-30T03:51:48;97003.66;;;15.74;84.87
3960;BME280;1994;48.640;8.894;2023-09-30T03:54:16;97012.81;;;15.71;85.08
3960;BME280;1994;48.640;8.894;2023-09-30T03:56:45;96999.75;;;15.71;85.50
3960;BME280;1994;48.640;8.894;2023-09-30T03:59:11;96997.38;;;15.70;85.09
3960;BME280;1994;48.640;8.894;2023-09-30T04:01:36;96998.94;;;15.71;85.18
3960;BME280;1994;48.640;8.894;2023-09-30T04:04:06;97010.00;;;15.78;85.25
3960;BME280;1994;48.640;8.894;2023-09-30T04:06:33;97011.69;;;15.89;84.77
3960;BME280;1994;48.640;8.894;2023-09-30T04:08:58;97005.41;;;15.90;84.77
3960;BME280;1994;48.640;8.894;2023-09-30T04:11:24;97012.66;;;15.83;84.95
3960;BME280;1994;48.640;8.894;2023-09-30T04:13:50;97013.72;;;15.82;85.34
3960;BME280;1994;48.640;8.894;2023-09-30T04:16:16;97012.38;;;15.79;85.42
3960;BME280;1994;48.640;8.894;2023-09-30T04:18:44;97020.94;;;15.75;85.58
3960;BME280;1994;48.640;8.894;2023-09-30T04:21:10;97019.34;;;15.74;85.56
3960;BME280;1994;48.640;8.894;2023-09-30T04:23:37;97023.19;;;15.88;85.61
3960;BME280;1994;48.640;8.894;2023-09-30T04:26:03;97021.53;;;15.82;85.55
3960;BME280;1994;48.640;8.894;2023-09-30T04:28:29;97023.97;;;15.88;85.01
3960;BME280;1994;48.640;8.894;2023-09-30T04:30:56;97024.47;;;15.64;85.90
3960;BME280;1994;48.640;8.894;2023-09-30T04:33:21;97026.28;;;15.42;87.42
3960;BME280;1994;48.640;8.894;2023-09-30T04:35:50;97032.41;;;15.52;87.58
3960;BME280;1994;48.640;8.894;2023-09-30T04:38:16;97042.19;;;15.62;87.06
3960;BME280;1994;48.640;8.894;2023-09-30T04:40:42;97045.09;;;15.65;86.89
3960;BME280;1994;48.640;8.894;2023-09-30T04:43:10;97050.66;;;15.69;87.13
3960;BME280;1994;48.640;8.894;2023-09-30T04:45:36;97051.19;;;15.71;86.83
3960;BME280;1994;48.640;8.894;2023-09-30T04:48:02;97046.03;;;15.76;87.36
3960;BME280;1994;48.640;8.894;2023-09-30T04:50:28;97030.97;;;15.83;86.68
3960;BME280;1994;48.640;8.894;2023-09-30T04:52:56;97046.22;;;15.91;86.14
3960;BME280;1994;48.640;8.894;2023-09-30T04:55:23;97050.81;;;15.84;87.04
3960;BME280;1994;48.640;8.894;2023-09-30T04:57:50;97061.78;;;15.81;86.97
3960;BME280;1994;48.640;8.894;2023-09-30T05:00:19;97049.25;;;15.83;86.71
3960;BME280;1994;48.640;8.894;2023-09-30T05:02:54;97047.16;;;15.85;86.35
3960;BME280;1994;48.640;8.894;2023-09-30T05:05:20;97043.53;;;15.86;86.39
3960;BME280;1994;48.640;8.894;2023-09-30T05:07:46;97063.78;;;15.95;86.32
3960;BME280;1994;48.640;8.894;2023-09-30T05:10:13;97070.28;;;15.93;86.57
3960;BME280;1994;48.640;8.894;2023-09-30T05:12:45;97087.06;;;15.97;87.09
3960;BME280;1994;48.640;8.894;2023-09-30T05:15:17;97087.66;;;16.04;86.58
3960;BME280;1994;48.640;8.894;2023-09-30T05:17:45;97068.81;;;16.02;85.77
3960;BME280;1994;48.640;8.894;2023-09-30T05:20:11;97072.16;;;15.97;85.98
3960;BME280;1994;48.640;8.894;2023-09-30T05:22:39;97068.06;;;15.85;86.49
3960;BME280;1994;48.640;8.894;2023-09-30T05:25:07;97064.44;;;15.86;85.95
3960;BME280;1994;48.640;8.894;2023-09-30T05:27:33;97062.81;;;15.80;87.05
3960;BME280;1994;48.640;8.894;2023-09-30T05:29:58;97066.25;;;15.64;87.33
3960;BME280;1994;48.640;8.894;2023-09-30T05:32:25;97060.69;;;15.60;87.64
3960;BME280;1994;48.640;8.894;2023-09-30T05:34:52;97066.88;;;15.71;87.05
3960;BME280;1994;48.640;8.894;2023-09-30T05:37:21;97062.06;;;15.84;86.35
3960;BME280;1994;48.640;8.894;2023-09-30T05:39:47;97064.44;;;15.86;85.92
3960;BME280;1994;48.640;8.894;2023-09-30T05:42:15;97061.47;;;15.77;86.63
3960;BME280;1994;48.640;8.894;2023-09-30T05:44:41;97058.28;;;15.75;87.04
3960;BME280;1994;48.640;8.894;2023-09-30T05:47:08;97070.66;;;15.80;86.96
3960;BME280;1994;48.640;8.894;2023-09-30T05:49:34;97064.50;;;15.91;86.17
3960;BME280;1994;48.640;8.894;2023-09-30T05:52:02;97052.50;;;15.95;86.22
3960;BME280;1994;48.640;8.894;2023-09-30T05:54:28;97060.41;;;16.00;86.01
3960;BME280;1994;48.640;8.894;2023-09-30T05:56:54;97068.00;;;16.01;85.84
3960;BME280;1994;48.640;8.894;2023-09-30T05:59:20;97078.16;;;15.98;86.30
3960;BME280;1994;48.640;8.894;2023-09-30T06:01:46;97083.41;;;15.98;85.84
3960;BME280;1994;48.640;8.894;2023-09-30T06:04:12;97085.50;;;15.79;86.44
3960;BME280;1994;48.640;8.894;2023-09-30T06:06:38;97083.63;;;15.75;86.55
3960;BME280;1994;48.640;8.894;2023-09-30T06:09:04;97079.31;;;15.64;87.30
3960;BME280;1994;48.640;8.894;2023-09-30T06:11:33;97081.94;;;15.64;87.19
3960;BME280;1994;48.640;8.894;2023-09-30T06:13:59;97069.09;;;15.62;87.33
3960;BME280;1994;48.640;8.894;2023-09-30T06:16:27;97078.75;;;15.62;87.51
3960;BME280;1994;48.640;8.894;2023-09-30T06:18:53;97093.66;;;15.61;87.34
3960;BME280;1994;48.640;8.894;2023-09-30T06:21:21;97105.97;;;15.66;87.52
3960;BME280;1994;48.640;8.894;2023-09-30T06:23:48;97095.53;;;15.66;87.46
3960;BME280;1994;48.640;8.894;2023-09-30T06:26:20;97099.47;;;15.68;87.19
3960;BME280;1994;48.640;8.894;2023-09-30T06:28:51;97116.56;;;15.76;86.84
3960;BME280;1994;48.640;8.894;2023-09-30T06:31:19;97114.78;;;15.81;86.48
3960;BME280;1994;48.640;8.894;2023-09-30T06:33:45;97106.72;;;15.83;86.65
3960;BME280;1994;48.640;8.894;2023-09-30T06:36:12;97095.97;;;15.79;86.91
3960;BME280;1994;48.640;8.894;2023-09-30T06:38:43;97105.81;;;15.94;86.30
3960;BME280;1994;48.640;8.894;2023-09-30T06:41:09;97122.41;;;15.83;86.81
3960;BME280;1994;48.640;8.894;2023-09-30T06:43:40;97125.06;;;15.88;86.80
3960;BME280;1994;48.640;8.894;2023-09-30T06:46:07;97117.38;;;15.98;86.27
3960;BME280;1994;48.640;8.894;2023-09-30T06:48:36;97117.91;;;16.00;86.37
3960;BME280;1994;48.640;8.894;2023-09-30T06:51:03;97131.53;;;16.02;86.39
3960;BME280;1994;48.640;8.894;2023-09-30T06:53:29;97133.31;;;16.18;85.85
3960;BME280;1994;48.640;8.894;2023-09-30T06:55:55;97133.47;;;16.33;85.46
3960;BME280;1994;48.640;8.894;2023-09-30T06:58:21;97144.72;;;16.33;85.19
3960;BME280;1994;48.640;8.894;2023-09-30T07:00:51;97147.28;;;16.50;84.50
3960;BME280;1994;48.640;8.894;2023-09-30T07:03:19;97142.06;;;16.76;84.21
3960;BME280;1994;48.640;8.894;2023-09-30T07:05:45;97143.50;;;16.89;83.69
3960;BME280;1994;48.640;8.894;2023-09-30T07:08:16;97129.06;;;17.13;82.41
3960;BME280;1994;48.640;8.894;2023-09-30T07:10:43;97123.56;;;17.46;81.45
3960;BME280;1994;48.640;8.894;2023-09-30T07:13:09;97129.38;;;17.53;81.49
3960;BME280;1994;48.640;8.894;2023-09-30T07:15:35;97124.19;;;17.63;81.20
3960;BME280;1994;48.640;8.894;2023-09-30T07:18:01;97117.31;;;17.52;81.03
3960;BME280;1994;48.640;8.894;2023-09-30T07:20:27;97123.97;;;17.33;81.55
3960;BME280;1994;48.640;8.894;2023-09-30T07:22:54;97131.19;;;17.21;82.29
3960;BME280;1994;48.640;8.894;2023-09-30T07:25:20;97146.25;;;17.04;83.33
3960;BME280;1994;48.640;8.894;2023-09-30T07:27:46;97152.00;;;17.01;83.36
3960;BME280;1994;48.640;8.894;2023-09-30T07:30:13;97159.28;;;16.99;84.12
3960;BME280;1994;48.640;8.894;2023-09-30T07:32:42;97160.94;;;17.10;83.74
3960;BME280;1994;48.640;8.894;2023-09-30T07:35:08;97170.72;;;17.46;82.17
3960;BME280;1994;48.640;8.894;2023-09-30T07:37:34;97179.78;;;17.70;80.87
3960;BME280;1994;48.640;8.894;2023-09-30T07:40:00;97171.31;;;17.99;79.86
3960;BME280;1994;48.640;8.894;2023-09-30T07:42:26;97169.06;;;18.18;79.36
3960;BME280;1994;48.640;8.894;2023-09-30T07:44:51;97164.84;;;18.12;78.93
3960;BME280;1994;48.640;8.894;2023-09-30T07:47:18;97162.47;;;18.10;78.73
3960;BME280;1994;48.640;8.894;2023-09-30T07:49:44;97160.19;;;18.29;77.88
3960;BME280;1994;48.640;8.894;2023-09-30T07:52:09;97166.66;;;18.63;76.25
3960;BME280;1994;48.640;8.894;2023-09-30T07:54:36;97165.03;;;18.62;75.68
3960;BME280;1994;48.640;8.894;2023-09-30T07:57:02;97178.69;;;18.54;76.11
3960;BME280;1994;48.640;8.894;2023-09-30T07:59:28;97175.06;;;18.70;74.96
3960;BME280;1994;48.640;8.894;2023-09-30T08:01:53;97179.78;;;18.63;75.01
3960;BME280;1994;48.640;8.894;2023-09-30T08:04:19;97183.22;;;18.83;74.75
3960;BME280;1994;48.640;8.894;2023-09-30T08:06:45;97174.44;;;18.43;75.73
3960;BME280;1994;48.640;8.894;2023-09-30T08:09:14;97170.25;;;18.42;76.71
3960;BME280;1994;48.640;8.894;2023-09-30T08:11:41;97163.72;;;18.54;76.24
3960;BME280;1994;48.640;8.894;2023-09-30T08:14:06;97158.84;;;19.08;74.45
3960;BME280;1994;48.640;8.894;2023-09-30T08:16:37;97155.16;;;19.09;73.46
3960;BME280;1994;48.640;8.894;2023-09-30T08:19:04;97162.22;;;18.83;74.82
3960;BME280;1994;48.640;8.894;2023-09-30T08:21:32;97156.25;;;19.33;73.30
3960;BME280;1994;48.640;8.894;2023-09-30T08:23:57;97163.03;;;19.89;71.48
3960;BME280;1994;48.640;8.894;2023-09-30T08:26:23;97165.56;;;20.29;69.86
3960;BME280;1994;48.640;8.894;2023-09-30T08:28:49;97168.78;;;21.85;63.16
3960;BME280;1994;48.640;8.894;2023-09-30T08:31:15;97173.91;;;22.89;60.78
3960;BME280;1994;48.640;8.894;2023-09-30T08:33:41;97174.41;;;23.60;57.46
3960;BME280;1994;48.640;8.894;2023-09-30T08:36:09;97174.84;;;23.80;56.42
3960;BME280;1994;48.640;8.894;2023-09-30T08:38:40;97173.34;;;23.93;55.80
3960;BME280;1994;48.640;8.894;2023-09-30T08:41:07;97190.44;;;24.41;54.10
3960;BME280;1994;48.640;8.894;2023-09-30T08:43:38;97186.69;;;24.82;54.31
3960;BME280;1994;48.640;8.894;2023-09-30T08:46:05;97168.50;;;25.25;52.11
3960;BME280;1994;48.640;8.894;2023-09-30T08:48:33;97171.41;;;25.23;51.14
3960;BME280;1994;48.640;8.894;2023-09-30T08:51:00;97167.06;;;25.41;50.42
3960;BME280;1994;48.640;8.894;2023-09-30T08:53:26;97169.84;;;25.88;49.33
3960;BME280;1994;48.640;8.894;2023-09-30T08:55:54;97163.09;;;25.82;48.99
3960;BME280;1994;48.640;8.894;2023-09-30T08:58:24;97160.41;;;26.52;47.69
3960;BME280;1994;48.640;8.894;2023-09-30T09:00:50;97157.28;;;26.50;47.28
3960;BME280;1994;48.640;8.894;2023-09-30T09:03:19;97152.28;;;25.48;48.96
3960;BME280;1994;48.640;8.894;2023-09-30T09:05:55;97154.00;;;25.09;50.61
3960;BME280;1994;48.640;8.894;2023-09-30T09:08:26;97158.19;;;25.45;49.73
3960;BME280;1994;48.640;8.894;2023-09-30T09:10:58;97162.75;;;26.06;48.08
3960;BME280;1994;48.640;8.894;2023-09-30T09:13:27;97167.81;;;26.72;45.94
3960;BME280;1994;48.640;8.894;2023-09-30T09:16:07;97168.94;;;26.71;46.69
3960;BME280;1994;48.640;8.894;2023-09-30T09:18:33;97165.47;;;26.62;45.30
3960;BME280;1994;48.640;8.894;2023-09-30T09:21:12;97160.31;;;26.18;47.04
3960;BME280;1994;48.640;8.894;2023-09-30T09:23:46;97172.88;;;27.07;44.82
3960;BME280;1994;48.640;8.894;2023-09-30T09:26:26;97172.56;;;27.51;44.10
3960;BME280;1994;48.640;8.894;2023-09-30T09:29:03;97173.66;;;27.59;43.70
3960;BME280;1994;48.640;8.894;2023-09-30T09:31:35;97171.00;;;26.99;44.31
3960;BME280;1994;48.640;8.894;2023-09-30T09:34:03;97164.75;;;27.38;44.99
3960;BME280;1994;48.640;8.894;2023-09-30T09:36:41;97159.78;;;27.99;44.45
3960;BME280;1994;48.640;8.894;2023-09-30T09:39:07;97162.41;;;28.37;43.03
3960;BME280;1994;48.640;8.894;2023-09-30T09:41:48;97157.72;;;28.92;41.58
3960;BME280;1994;48.640;8.894;2023-09-30T09:44:16;97156.03;;;28.29;42.01
3960;BME280;1994;48.640;8.894;2023-09-30T09:46:43;97157.34;;;29.02;42.42
3960;BME280;1994;48.640;8.894;2023-09-30T09:49:10;97145.09;;;28.60;41.55
3960;BME280;1994;48.640;8.894;2023-09-30T09:51:37;97150.44;;;27.76;42.24
3960;BME280;1994;48.640;8.894;2023-09-30T09:54:05;97153.31;;;27.54;44.30
3960;BME280;1994;48.640;8.894;2023-09-30T09:56:34;97145.31;;;26.78;45.02
3960;BME280;1994;48.640;8.894;2023-09-30T09:59:01;97152.53;;;24.54;48.89
3960;BME280;1994;48.640;8.894;2023-09-30T10:01:30;97146.19;;;23.69;51.01
3960;BME280;1994;48.640;8.894;2023-09-30T10:03:56;97144.81;;;23.07;52.09
3960;BME280;1994;48.640;8.894;2023-09-30T10:06:23;97144.97;;;22.97;53.16
3960;BME280;1994;48.640;8.894;2023-09-30T10:08:50;97156.75;;;22.68;53.64
3960;BME280;1994;48.640;8.894;2023-09-30T10:11:21;97140.97;;;22.81;54.33
3960;BME280;1994;48.640;8.894;2023-09-30T10:13:58;97146.75;;;23.02;53.25
3960;BME280;1994;48.640;8.894;2023-09-30T10:19:23;97142.69;;;22.07;56.05
3960;BME280;1994;48.640;8.894;2023-09-30T10:24:44;97138.25;;;21.79;56.97
3960;BME280;1994;48.640;8.894;2023-09-30T10:29:48;97140.41;;;22.42;56.44
3960;BME280;1994;48.640;8.894;2023-09-30T10:32:15;97142.25;;;23.39;54.14
3960;BME280;1994;48.640;8.894;2023-09-30T10:34:50;97129.72;;;24.04;50.73
3960;BME280;1994;48.640;8.894;2023-09-30T10:37:24;97127.44;;;24.38;50.11
3960;BME280;1994;48.640;8.894;2023-09-30T10:39:58;97119.97;;;23.72;50.24
3960;BME280;1994;48.640;8.894;2023-09-30T10:42:46;97129.78;;;23.40;51.00
3960;BME280;1994;48.640;8.894;2023-09-30T10:50:59;97129.81;;;22.84;50.76
3960;BME280;1994;48.640;8.894;2023-09-30T10:53:28;97131.34;;;22.72;50.26
3960;BME280;1994;48.640;8.894;2023-09-30T10:55:59;97120.47;;;22.92;49.19
3960;BME280;1994;48.640;8.894;2023-09-30T10:58:47;97118.50;;;22.84;49.95
3960;BME280;1994;48.640;8.894;2023-09-30T11:01:19;97115.63;;;22.62;48.66
3960;BME280;1994;48.640;8.894;2023-09-30T11:03:46;97118.28;;;22.62;48.73
3960;BME280;1994;48.640;8.894;2023-09-30T11:06:16;97113.63;;;22.54;47.69
3960;BME280;1994;48.640;8.894;2023-09-30T11:09:04;97097.91;;;22.44;46.96
3960;BME280;1994;48.640;8.894;2023-09-30T11:11:45;97099.78;;;22.20;48.20
3960;BME280;1994;48.640;8.894;2023-09-30T11:14:30;97094.31;;;22.35;48.48
3960;BME280;1994;48.640;8.894;2023-09-30T11:17:01;97098.47;;;22.41;49.78
3960;BME280;1994;48.640;8.894;2023-09-30T11:19:45;97094.88;;;23.70;48.24
3960;BME280;1994;48.640;8.894;2023-09-30T11:22:12;97096.72;;;24.64;44.93
3960;BME280;1994;48.640;8.894;2023-09-30T11:24:38;97082.50;;;25.48;43.12
3960;BME280;1994;48.640;8.894;2023-09-30T11:27:04;97090.38;;;26.48;41.15
3960;BME280;1994;48.640;8.894;2023-09-30T11:29:32;97094.03;;;27.03;39.22
3960;BME280;1994;48.640;8.894;2023-09-30T11:32:01;97090.09;;;27.26;39.46
3960;BME280;1994;48.640;8.894;2023-09-30T11:34:34;97080.81;;;27.49;38.06
3960;BME280;1994;48.640;8.894;2023-09-30T11:37:01;97093.88;;;27.25;38.33
3960;BME280;1994;48.640;8.894;2023-09-30T11:39:30;97093.91;;;27.71;37.35
3960;BME280;1994;48.640;8.894;2023-09-30T11:41:57;97083.22;;;27.25;36.14
3960;BME280;1994;48.640;8.894;2023-09-30T11:44:24;97089.31;;;26.91;37.05
3960;BME280;1994;48.640;8.894;2023-09-30T11:49:38;97094.78;;;26.61;38.00
3960;BME280;1994;48.640;8.894;2023-09-30T11:52:08;97082.16;;;26.83;39.10
3960;BME280;1994;48.640;8.894;2023-09-30T11:54:47;97079.38;;;26.24;37.45
3960;BME280;1994;48.640;8.894;2023-09-30T11:57:18;97076.00;;;25.10;38.28
3960;BME280;1994;48.640;8.894;2023-09-30T11:59:45;97075.56;;;25.30;38.53
3960;BME280;1994;48.640;8.894;2023-09-30T12:02:15;97078.69;;;25.62;38.23
3960;BME280;1994;48.640;8.894;2023-09-30T12:04:44;97079.13;;;25.56;38.83
3960;BME280;1994;48.640;8.894;2023-09-30T12:07:11;97082.50;;;25.48;37.95
3960;BME280;1994;48.640;8.894;2023-09-30T12:09:37;97083.78;;;25.89;37.02
3960;BME280;1994;48.640;8.894;2023-09-30T12:12:06;97087.03;;;25.78;39.00
3960;BME280;1994;48.640;8.894;2023-09-30T12:14:34;97084.59;;;25.90;38.39
3960;BME280;1994;48.640;8.894;2023-09-30T12:17:00;97085.78;;;25.23;38.53
3960;BME280;1994;48.640;8.894;2023-09-30T12:19:26;97079.28;;;24.85;40.12
3960;BME280;1994;48.640;8.894;2023-09-30T12:21:52;97089.38;;;24.34;40.62
3960;BME280;1994;48.640;8.894;2023-09-30T12:24:19;97080.09;;;24.94;39.49
3960;BME280;1994;48.640;8.894;2023-09-30T12:26:48;97071.81;;;25.31;38.40
3960;BME280;1994;48.640;8.894;2023-09-30T12:29:19;97076.69;;;25.68;38.63
3960;BME280;1994;48.640;8.894;2023-09-30T12:31:46;97075.88;;;25.98;37.59
3960;BME280;1994;48.640;8.894;2023-09-30T12:34:15;97075.44;;;26.04;37.45
3960;BME280;1994;48.640;8.894;2023-09-30T12:36:41;97079.97;;;26.04;37.78
3960;BME280;1994;48.640;8.894;2023-09-30T12:39:08;97078.69;;;25.93;37.60
3960;BME280;1994;48.640;8.894;2023-09-30T12:41:43;97079.75;;;26.31;37.62
3960;BME280;1994;48.640;8.894;2023-09-30T12:44:10;97081.03;;;26.03;38.18
3960;BME280;1994;48.640;8.894;2023-09-30T12:46:37;97068.91;;;26.27;38.68
3960;BME280;1994;48.640;8.894;2023-09-30T12:49:08;97071.78;;;26.39;39.27
3960;BME280;1994;48.640;8.894;2023-09-30T12:51:35;97075.09;;;25.97;38.58
3960;BME280;1994;48.640;8.894;2023-09-30T12:54:01;97067.38;;;25.79;39.48
3960;BME280;1994;48.640;8.894;2023-09-30T12:56:27;97062.88;;;25.05;40.56
3960;BME280;1994;48.640;8.894;2023-09-30T13:02:37;97066.94;;;24.18;42.03
3960;BME280;1994;48.640;8.894;2023-09-30T13:05:04;97065.19;;;24.27;42.78
3960;BME280;1994;48.640;8.894;2023-09-30T13:07:32;97064.53;;;23.94;43.11
3960;BME280;1994;48.640;8.894;2023-09-30T13:09:58;97065.31;;;23.95;43.12
3960;BME280;1994;48.640;8.894;2023-09-30T13:12:26;97067.41;;;24.47;42.65
3960;BME280;1994;48.640;8.894;2023-09-30T13:14:52;97058.88;;;25.16;41.21
3960;BME280;1994;48.640;8.894;2023-09-30T13:17:22;97049.88;;;25.17;40.97
3960;BME280;1994;48.640;8.894;2023-09-30T13:19:50;97043.72;;;25.30;41.77
3960;BME280;1994;48.640;8.894;2023-09-30T13:22:17;97046.63;;;24.98;42.09
3960;BME280;1994;48.640;8.894;2023-09-30T13:24:43;97030.84;;;24.22;43.83
3960;BME280;1994;48.640;8.894;2023-09-30T13:27:09;97030.22;;;23.89;44.96
3960;BME280;1994;48.640;8.894;2023-09-30T13:29:35;97033.53;;;23.68;45.38
3960;BME280;1994;48.640;8.894;2023-09-30T13:32:02;97033.34;;;23.78;45.93
3960;BME280;1994;48.640;8.894;2023-09-30T13:34:27;97031.00;;;23.90;44.76
3960;BME280;1994;48.640;8.894;2023-09-30T13:36:56;97031.00;;;24.03;44.20
3960;BME280;1994;48.640;8.894;2023-09-30T13:39:23;97031.97;;;24.07;44.28
3960;BME280;1994;48.640;8.894;2023-09-30T13:41:50;97023.13;;;24.12;43.43
3960;BME280;1994;48.640;8.894;2023-09-30T13:44:16;97019.56;;;24.30;43.79
3960;BME280;1994;48.640;8.894;2023-09-30T13:46:41;97024.75;;;24.35;43.96